createdAt,value
2023-04-15T00:01:19.389Z,100282.28
2023-04-15T00:03:48.362Z,100274.59
2023-04-15T00:06:16.103Z,100267.66
2023-04-15T00:08:43.712Z,100266.06
2023-04-15T00:11:12.690Z,100274.25
2023-04-15T00:13:41.414Z,100271.00
2023-04-15T00:16:10.653Z,100269.47
2023-04-15T00:18:39.476Z,100268.84
2023-04-15T00:21:07.239Z,100269.13
2023-04-15T00:23:36.363Z,100278.03
2023-04-15T00:26:04.963Z,100271.28
2023-04-15T00:28:34.150Z,100265.28
2023-04-15T00:31:02.237Z,100269.00
2023-04-15T00:33:29.995Z,100271.78
2023-04-15T00:35:58.406Z,100266.00
2023-04-15T00:38:26.053Z,100275.13
2023-04-15T00:40:55.426Z,100271.91
2023-04-15T00:43:22.992Z,100266.00
2023-04-15T00:45:54.187Z,100271.66
2023-04-15T00:48:22.277Z,100263.16
2023-04-15T00:50:51.867Z,100270.31
2023-04-15T00:53:19.844Z,100267.94
2023-04-15T00:55:48.409Z,100269.13
2023-04-15T00:58:16.345Z,100272.13
2023-04-15T01:00:44.194Z,100271.41
2023-04-15T01:03:13.943Z,100269.88
2023-04-15T01:05:41.685Z,100263.97
2023-04-15T01:08:09.694Z,100266.81
2023-04-15T01:10:37.786Z,100268.88
2023-04-15T01:13:05.423Z,100265.63
2023-04-15T01:15:34.372Z,100266.81
2023-04-15T01:18:04.126Z,100265.22
2023-04-15T01:20:33.061Z,100268.97
2023-04-15T01:23:01.450Z,100273.63
2023-04-15T01:25:34.705Z,100273.88
2023-04-15T01:28:03.173Z,100274.09
2023-04-15T01:30:34.588Z,100273.47
2023-04-15T01:33:02.607Z,100271.06
2023-04-15T01:35:33.951Z,100276.69
2023-04-15T01:38:10.450Z,100270.91
2023-04-15T01:40:40.828Z,100269.50
2023-04-15T01:43:09.273Z,100260.09
2023-04-15T01:45:36.967Z,100269.19
2023-04-15T01:48:05.253Z,100273.88
2023-04-15T01:50:34.048Z,100272.41
2023-04-15T01:53:03.589Z,100275.28
2023-04-15T01:55:32.454Z,100264.84
2023-04-15T01:58:01.381Z,100267.72
2023-04-15T02:00:54.342Z,100267.81
2023-04-15T02:03:22.598Z,100266.38
2023-04-15T02:05:51.436Z,100277.06
2023-04-15T02:08:19.519Z,100272.00
2023-04-15T02:10:47.460Z,100277.59
2023-04-15T02:13:16.923Z,100280.34
2023-04-15T02:15:48.403Z,100281.53
2023-04-15T02:18:20.840Z,100280.81
2023-04-15T02:20:49.777Z,100279.34
2023-04-15T02:23:19.525Z,100289.16
2023-04-15T02:25:53.581Z,100285.81
2023-04-15T02:28:23.522Z,100285.91
2023-04-15T02:30:52.672Z,100284.47
2023-04-15T02:33:20.805Z,100286.34
2023-04-15T02:35:48.435Z,100292.44
2023-04-15T02:38:18.463Z,100290.78
2023-04-15T02:40:53.530Z,100297.97
2023-04-15T02:43:21.687Z,100297.97
2023-04-15T02:45:54.223Z,100310.19
2023-04-15T02:48:23.402Z,100312.81
2023-04-15T02:50:51.952Z,100315.25
2023-04-15T02:53:20.809Z,100316.94
2023-04-15T02:55:48.333Z,100314.38
2023-04-15T02:58:15.960Z,100320.72
2023-04-15T03:00:43.534Z,100305.88
2023-04-15T03:03:16.623Z,100313.97
2023-04-15T03:05:45.368Z,100316.72
2023-04-15T03:08:14.875Z,100321.28
2023-04-15T03:10:42.509Z,100324.00
2023-04-15T03:13:10.140Z,100321.50
2023-04-15T03:15:40.452Z,100319.09
2023-04-15T03:18:08.550Z,100321.81
2023-04-15T03:20:38.220Z,100315.81
2023-04-15T03:23:07.615Z,100313.31
2023-04-15T03:25:38.033Z,100322.16
2023-04-15T03:28:07.713Z,100316.97
2023-04-15T03:30:36.528Z,100318.88
2023-04-15T03:33:04.416Z,100313.75
2023-04-15T03:35:33.528Z,100310.47
2023-04-15T03:38:02.543Z,100309.75
2023-04-15T03:40:31.092Z,100308.16
2023-04-15T03:42:58.796Z,100313.53
2023-04-15T03:45:26.599Z,100315.44
2023-04-15T03:47:54.250Z,100326.94
2023-04-15T03:50:22.935Z,100330.50
2023-04-15T03:52:51.862Z,100326.28
2023-04-15T03:55:20.819Z,100333.34
2023-04-15T03:57:48.815Z,100328.22
2023-04-15T04:00:16.631Z,100329.25
2023-04-15T04:02:45.993Z,100326.72
2023-04-15T04:05:13.795Z,100321.56
2023-04-15T04:07:41.371Z,100319.91
2023-04-15T04:10:11.440Z,100312.00
2023-04-15T04:12:40.311Z,100315.56
2023-04-15T04:15:09.240Z,100315.56
2023-04-15T04:17:37.421Z,100317.47
2023-04-15T04:20:07.393Z,100324.53
2023-04-15T04:22:38.960Z,100316.63
2023-04-15T04:25:08.507Z,100317.47
2023-04-15T04:27:38.001Z,100325.38
2023-04-15T04:30:08.468Z,100326.31
2023-04-15T04:32:36.904Z,100328.94
2023-04-15T04:35:05.529Z,100331.59
2023-04-15T04:37:33.078Z,100336.84
2023-04-15T04:40:00.713Z,100343.78
2023-04-15T04:42:28.907Z,100344.53
2023-04-15T04:45:01.168Z,100351.50
2023-04-15T04:47:30.182Z,100353.19
2023-04-15T04:49:58.416Z,100346.13
2023-04-15T04:52:26.511Z,100360.13
2023-04-15T04:54:55.837Z,100355.81
2023-04-15T04:57:23.386Z,100355.81
2023-04-15T04:59:51.420Z,100361.81
2023-04-15T05:02:19.706Z,100363.47
2023-04-15T05:04:54.274Z,100354.53
2023-04-15T05:07:22.127Z,100368.31
2023-04-15T05:09:49.643Z,100377.72
2023-04-15T05:12:18.191Z,100376.75
2023-04-15T05:14:46.661Z,100378.25
2023-04-15T05:17:16.662Z,100376.97
2023-04-15T05:19:46.811Z,100395.09
2023-04-15T05:22:17.414Z,100389.47
2023-04-15T05:24:48.512Z,100394.44
2023-04-15T05:27:16.201Z,100388.00
2023-04-15T05:29:43.719Z,100393.81
2023-04-15T05:32:11.978Z,100396.97
2023-04-15T05:34:39.516Z,100399.16
2023-04-15T05:37:34.209Z,100400.72
2023-04-15T05:40:03.423Z,100401.97
2023-04-15T05:42:31.382Z,100404.16
2023-04-15T05:44:58.909Z,100411.63
2023-04-15T05:47:27.362Z,100410.34
2023-04-15T05:49:55.900Z,100412.53
2023-04-15T05:52:23.474Z,100415.81
2023-04-15T05:54:53.230Z,100411.91
2023-04-15T05:57:20.841Z,100411.44
2023-04-15T05:59:48.972Z,100406.78
2023-04-15T06:02:17.412Z,100403.81
2023-04-15T06:04:45.020Z,100406.94
2023-04-15T06:07:12.885Z,100404.81
2023-04-15T06:09:44.617Z,100418.53
2023-04-15T06:12:13.733Z,100417.09
2023-04-15T06:14:41.318Z,100425.53
2023-04-15T06:17:09.172Z,100431.31
2023-04-15T06:19:37.230Z,100429.41
2023-04-15T06:22:07.579Z,100431.41
2023-04-15T06:24:36.964Z,100440.41
2023-04-15T06:27:05.119Z,100439.97
2023-04-15T06:29:34.410Z,100434.56
2023-04-15T06:32:27.679Z,100449.72
2023-04-15T06:34:56.647Z,100446.63
2023-04-15T06:37:24.559Z,100458.53
2023-04-15T06:39:52.861Z,100457.94
2023-04-15T06:42:23.395Z,100459.25
2023-04-15T06:44:53.195Z,100457.13
2023-04-15T06:47:20.793Z,100459.41
2023-04-15T06:49:48.422Z,100455.69
2023-04-15T06:52:16.557Z,100454.25
2023-04-15T06:54:44.447Z,100469.75
2023-04-15T06:57:13.914Z,100464.13
2023-04-15T06:59:44.926Z,100459.91
2023-04-15T07:02:16.533Z,100463.53
2023-04-15T07:04:44.791Z,100461.00
2023-04-15T07:07:13.313Z,100459.44
2023-04-15T07:09:41.449Z,100461.72
2023-04-15T07:12:09.122Z,100465.81
2023-04-15T07:14:37.050Z,100456.56
2023-04-15T07:17:04.762Z,100460.75
2023-04-15T07:19:33.723Z,100464.59
2023-04-15T07:22:01.850Z,100458.72
2023-04-15T07:24:29.991Z,100467.97
2023-04-15T07:26:59.443Z,100460.63
2023-04-15T07:29:30.441Z,100457.38
2023-04-15T07:31:58.072Z,100455.91
2023-04-15T07:34:25.742Z,100463.34
2023-04-15T07:36:54.638Z,100459.25
2023-04-15T07:39:22.595Z,100460.56
2023-04-15T07:41:50.324Z,100449.94
2023-04-15T07:44:18.522Z,100464.63
2023-04-15T07:46:48.761Z,100457.84
2023-04-15T07:49:16.358Z,100460.69
2023-04-15T07:51:44.265Z,100462.94
2023-04-15T07:54:13.999Z,100468.28
2023-04-15T07:56:43.439Z,100468.03
2023-04-15T07:59:13.434Z,100477.00
2023-04-15T08:01:41.286Z,100472.16
2023-04-15T08:04:10.671Z,100479.91
2023-04-15T08:06:39.715Z,100470.16
2023-04-15T08:09:09.540Z,100476.75
2023-04-15T08:11:38.581Z,100487.34
2023-04-15T08:14:06.823Z,100485.09
2023-04-15T08:16:35.489Z,100491.34
2023-04-15T08:19:03.841Z,100489.41
2023-04-15T08:21:32.133Z,100487.34
2023-04-15T08:24:01.618Z,100496.84
2023-04-15T08:26:29.302Z,100491.69
2023-04-15T08:28:58.326Z,100491.69
2023-04-15T08:31:27.802Z,100489.50
2023-04-15T08:33:57.410Z,100492.28
2023-04-15T08:36:25.011Z,100501.19
2023-04-15T08:38:52.738Z,100488.91
2023-04-15T08:41:24.410Z,100496.16
2023-04-15T08:44:02.528Z,100493.50
2023-04-15T08:46:31.964Z,100499.97
2023-04-15T08:49:00.150Z,100498.34
2023-04-15T08:51:28.420Z,100508.16
2023-04-15T08:54:21.685Z,100507.78
2023-04-15T08:56:50.451Z,100495.09
2023-04-15T08:59:21.272Z,100506.44
2023-04-15T09:01:51.006Z,100505.69
2023-04-15T09:04:19.426Z,100513.66
2023-04-15T09:06:47.894Z,100512.81
2023-04-15T09:09:15.637Z,100514.94
2023-04-15T09:11:44.090Z,100517.34
2023-04-15T09:14:12.052Z,100526.00
2023-04-15T09:16:59.349Z,100522.81
2023-04-15T09:19:28.445Z,100521.75
2023-04-15T09:21:59.104Z,100537.47
2023-04-15T09:24:52.504Z,100526.97
2023-04-15T09:27:22.534Z,100531.13
2023-04-15T09:30:18.557Z,100526.38
2023-04-15T09:32:52.741Z,100532.56
2023-04-15T09:35:23.619Z,100541.22
2023-04-15T09:37:52.314Z,100543.59
2023-04-15T09:40:33.652Z,100548.66
2023-04-15T09:43:04.977Z,100547.44
2023-04-15T09:45:33.514Z,100546.91
2023-04-15T09:48:17.352Z,100546.63
2023-04-15T09:50:46.705Z,100552.09
2023-04-15T09:53:18.004Z,100545.94
2023-04-15T09:55:47.428Z,100548.13
2023-04-15T09:58:23.315Z,100553.31
2023-04-15T10:00:52.793Z,100551.50
2023-04-15T10:03:24.736Z,100548.28
2023-04-15T10:05:54.490Z,100548.97
2023-04-15T10:08:25.181Z,100554.28
2023-04-15T10:10:53.138Z,100552.09
2023-04-15T10:13:23.551Z,100555.81
2023-04-15T10:15:53.347Z,100562.84
2023-04-15T10:18:26.974Z,100550.13
2023-04-15T10:20:56.550Z,100557.00
2023-04-15T10:23:26.414Z,100554.53
2023-04-15T10:25:55.354Z,100559.13
2023-04-15T10:28:23.970Z,100554.34
2023-04-15T10:30:53.592Z,100559.66
2023-04-15T10:33:25.282Z,100566.63
2023-04-15T10:35:55.150Z,100565.66
2023-04-15T10:38:34.485Z,100558.72
2023-04-15T10:41:21.130Z,100567.53
2023-04-15T10:43:52.414Z,100560.41
2023-04-15T10:46:22.358Z,100569.91
2023-04-15T10:48:52.886Z,100563.19
2023-04-15T10:51:31.660Z,100571.16
2023-04-15T10:54:01.615Z,100564.59
2023-04-15T10:56:30.169Z,100573.84
2023-04-15T10:59:00.362Z,100577.09
2023-04-15T11:01:51.974Z,100573.59
2023-04-15T11:07:42.854Z,100581.44
2023-04-15T11:10:54.806Z,100581.56
2023-04-15T11:13:52.431Z,100587.97
2023-04-15T11:16:21.388Z,100591.84
2023-04-15T11:18:56.873Z,100591.59
2023-04-15T11:21:28.178Z,100596.25
2023-04-15T11:23:57.636Z,100602.53
2023-04-15T11:26:27.522Z,100590.47
2023-04-15T11:28:55.882Z,100604.50
2023-04-15T11:31:28.529Z,100605.06
2023-04-15T11:33:59.334Z,100609.28
2023-04-15T11:36:28.257Z,100608.16
2023-04-15T11:38:59.905Z,100614.88
2023-04-15T11:41:27.543Z,100612.47
2023-04-15T11:43:55.342Z,100617.09
2023-04-15T11:46:30.945Z,100620.34
2023-04-15T11:49:00.037Z,100623.38
2023-04-15T11:51:27.692Z,100619.38
2023-04-15T11:53:56.873Z,100616.84
2023-04-15T11:56:25.869Z,100621.22
2023-04-15T11:58:56.723Z,100625.13
2023-04-15T12:01:32.315Z,100627.34
2023-04-15T12:04:01.516Z,100625.13
2023-04-15T12:06:34.918Z,100632.66
2023-04-15T12:09:09.282Z,100642.59
2023-04-15T12:11:40.082Z,100634.63
2023-04-15T12:14:11.132Z,100637.88
2023-04-15T12:16:47.920Z,100639.78
2023-04-15T12:19:25.779Z,100639.56
2023-04-15T12:21:54.876Z,100645.69
2023-04-15T12:24:24.125Z,100651.84
2023-04-15T12:26:53.924Z,100656.31
2023-04-15T12:29:27.001Z,100651.16
2023-04-15T12:31:56.531Z,100659.44
2023-04-15T12:34:29.913Z,100654.66
2023-04-15T12:37:03.494Z,100668.78
2023-04-15T12:39:38.321Z,100676.47
2023-04-15T12:42:06.976Z,100673.56
2023-04-15T12:44:36.871Z,100677.44
2023-04-15T12:47:04.824Z,100685.41
2023-04-15T12:49:33.675Z,100681.25
2023-04-15T12:52:03.013Z,100685.72
2023-04-15T12:54:32.996Z,100683.06
2023-04-15T12:57:01.217Z,100687.53
2023-04-15T12:59:29.487Z,100691.00
2023-04-15T13:01:57.247Z,100688.06
2023-04-15T13:04:25.890Z,100688.66
2023-04-15T13:06:53.500Z,100690.19
2023-04-15T13:09:21.449Z,100691.16
2023-04-15T13:11:50.905Z,100695.63
2023-04-15T13:14:18.613Z,100690.19
2023-04-15T13:16:46.379Z,100689.94
2023-04-15T13:19:14.216Z,100692.59
2023-04-15T13:21:42.929Z,100700.94
2023-04-15T13:24:11.246Z,100697.72
2023-04-15T13:26:38.826Z,100699.06
2023-04-15T13:29:07.870Z,100690.25
2023-04-15T13:31:35.594Z,100703.53
2023-04-15T13:34:03.412Z,100699.06
2023-04-15T13:36:31.254Z,100698.22
2023-04-15T13:38:59.886Z,100707.03
2023-04-15T13:41:28.530Z,100703.53
2023-04-15T13:43:56.591Z,100700.50
2023-04-15T13:46:28.002Z,100711.50
2023-04-15T13:48:55.798Z,100709.00
2023-04-15T13:51:23.684Z,100707.31
2023-04-15T13:53:51.415Z,100713.47
2023-04-15T13:56:19.253Z,100712.63
2023-04-15T13:58:48.315Z,100711.94
2023-04-15T14:01:16.258Z,100720.72
2023-04-15T14:03:45.285Z,100726.16
2023-04-15T14:06:12.948Z,100727.25
2023-04-15T14:08:41.038Z,100733.69
2023-04-15T14:11:09.483Z,100745.00
2023-04-15T14:13:37.997Z,100742.41
2023-04-15T14:16:07.701Z,100750.84
2023-04-15T14:18:37.496Z,100754.00
2023-04-15T14:21:07.868Z,100755.94
2023-04-15T14:23:39.962Z,100765.47
2023-04-15T14:26:07.680Z,100767.28
2023-04-15T14:28:35.276Z,100760.41
2023-04-15T14:31:02.925Z,100764.88
2023-04-15T14:33:30.572Z,100763.56
2023-04-15T14:35:58.319Z,100770.69
2023-04-15T14:38:27.565Z,100763.56
2023-04-15T14:40:55.364Z,100769.16
2023-04-15T14:43:23.311Z,100781.44
2023-04-15T14:45:52.582Z,100779.63
2023-04-15T14:48:20.330Z,100783.88
2023-04-15T14:50:47.994Z,100790.13
2023-04-15T14:53:15.896Z,100786.44
2023-04-15T14:55:45.500Z,100797.41
2023-04-15T14:58:13.391Z,100792.94
2023-04-15T15:00:44.224Z,100791.41
2023-04-15T15:03:14.955Z,100792.72
2023-04-15T15:05:44.398Z,100803.31
2023-04-15T15:08:13.494Z,100804.66
2023-04-15T15:10:49.167Z,100808.81
2023-04-15T15:13:19.868Z,100814.94
2023-04-15T15:15:50.060Z,100816.75
2023-04-15T15:18:18.804Z,100814.94
2023-04-15T15:20:46.961Z,100817.59
2023-04-15T15:23:14.525Z,100829.16
2023-04-15T15:25:42.252Z,100831.72
2023-04-15T15:28:10.376Z,100836.88
2023-04-15T15:30:39.778Z,100833.63
2023-04-15T15:33:07.479Z,100843.16
2023-04-15T15:35:35.599Z,100844.97
2023-04-15T15:38:03.263Z,100851.13
2023-04-15T15:40:33.458Z,100850.53
2023-04-15T15:43:01.085Z,100855.97
2023-04-15T15:45:29.332Z,100854.41
2023-04-15T15:47:59.193Z,100862.09
2023-04-15T15:50:26.922Z,100861.13
2023-04-15T15:52:55.051Z,100865.72
2023-04-15T15:55:23.402Z,100861.13
2023-04-15T15:57:52.422Z,100868.63
2023-04-15T16:00:21.240Z,100871.75
2023-04-15T16:03:05.686Z,100871.03
2023-04-15T16:05:36.290Z,100874.53
2023-04-15T16:08:03.983Z,100881.53
2023-04-15T16:10:31.964Z,100887.69
2023-04-15T16:12:59.571Z,100893.38
2023-04-15T16:15:28.037Z,100891.44
2023-04-15T16:17:55.683Z,100901.34
2023-04-15T16:20:23.362Z,100900.72
2023-04-15T16:22:52.878Z,100902.75
2023-04-15T16:25:20.730Z,100897.47
2023-04-15T16:27:59.304Z,100899.03
2023-04-15T16:30:31.339Z,100899.41
2023-04-15T16:32:59.153Z,100905.41
2023-04-15T16:35:26.821Z,100911.81
2023-04-15T16:37:55.704Z,100917.00
2023-04-15T16:40:23.979Z,100919.91
2023-04-15T16:42:51.938Z,100920.38
2023-04-15T16:45:19.683Z,100916.50
2023-04-15T16:47:47.322Z,100921.47
2023-04-15T16:50:14.882Z,100924.38
2023-04-15T16:52:43.875Z,100919.28
2023-04-15T16:55:12.896Z,100929.78
2023-04-15T16:58:02.135Z,100927.03
2023-04-15T17:00:28.900Z,100931.22
2023-04-15T17:02:57.263Z,100931.09
2023-04-15T17:05:27.209Z,100947.03
2023-04-15T17:07:54.966Z,100934.84
2023-04-15T17:10:24.017Z,100942.69
2023-04-15T17:12:52.600Z,100944.97
2023-04-15T17:15:20.534Z,100949.78
2023-04-15T17:17:48.373Z,100957.28
2023-04-15T17:20:17.285Z,100961.50
2023-04-15T17:22:45.400Z,100966.69
2023-04-15T17:25:14.544Z,100971.03
2023-04-15T17:27:43.733Z,100975.50
2023-04-15T17:30:11.884Z,100977.66
2023-04-15T17:32:40.397Z,100977.66
2023-04-15T17:35:08.964Z,100976.69
2023-04-15T17:37:36.788Z,100981.41
2023-04-15T17:40:06.716Z,100985.09
2023-04-15T17:42:37.896Z,100988.25
2023-04-15T17:45:08.069Z,100987.16
2023-04-15T17:47:37.321Z,100976.56
2023-04-15T17:52:58.612Z,100988.97
2023-04-15T17:55:26.204Z,101003.09
2023-04-15T17:57:53.847Z,101002.34
2023-04-15T18:00:22.750Z,101002.59
2023-04-15T18:02:50.588Z,101003.44
2023-04-15T18:05:20.610Z,101011.97
2023-04-15T18:07:48.938Z,101008.47
2023-04-15T18:10:20.909Z,101021.16
2023-04-15T18:12:49.168Z,101022.00
2023-04-15T18:15:17.463Z,101012.69
2023-04-15T18:17:46.918Z,101019.56
2023-04-15T18:20:15.256Z,101021.25
2023-04-15T18:22:43.871Z,101016.19
2023-04-15T18:25:14.061Z,101022.97
2023-04-15T18:27:41.766Z,101020.06
2023-04-15T18:30:10.735Z,101022.84
2023-04-15T18:32:38.748Z,101029.81
2023-04-15T18:35:08.897Z,101047.66
2023-04-15T18:37:37.995Z,101050.66
2023-04-15T18:40:08.842Z,101054.41
2023-04-15T18:42:36.989Z,101054.28
2023-04-15T18:45:04.886Z,101053.94
2023-04-15T18:47:33.558Z,101051.16
2023-04-15T18:50:01.192Z,101056.59
2023-04-15T18:52:30.923Z,101059.13
2023-04-15T18:54:58.551Z,101064.31
2023-04-15T18:57:32.981Z,101063.47
2023-04-15T19:00:03.514Z,101076.50
2023-04-15T19:02:32.442Z,101072.97
2023-04-15T19:05:03.595Z,101070.22
2023-04-15T19:07:32.999Z,101072.88
2023-04-15T19:10:00.687Z,101087.72
2023-04-15T19:12:28.394Z,101087.19
2023-04-15T19:14:56.143Z,101089.97
2023-04-15T19:17:23.749Z,101087.53
2023-04-15T19:19:51.674Z,101084.78
2023-04-15T19:22:19.405Z,101086.69
2023-04-15T19:24:48.645Z,101090.31
2023-04-15T19:27:16.236Z,101097.31
2023-04-15T19:29:44.158Z,101111.41
2023-04-15T19:32:13.868Z,101106.34
2023-04-15T19:34:41.468Z,101114.31
2023-04-15T19:37:09.083Z,101113.72
2023-04-15T19:39:36.688Z,101110.72
2023-04-15T19:42:05.572Z,101113.72
2023-04-15T19:44:33.889Z,101119.78
2023-04-15T19:47:01.940Z,101122.66
2023-04-15T19:49:29.520Z,101125.19
2023-04-15T19:51:57.143Z,101124.34
2023-04-15T19:54:24.728Z,101123.50
2023-04-15T19:56:53.342Z,101126.16
2023-04-15T19:59:22.989Z,101130.84
2023-04-15T20:01:50.827Z,101138.81
2023-04-15T20:04:18.606Z,101136.16
2023-04-15T20:06:46.431Z,101134.44
2023-04-15T20:09:14.036Z,101144.72
2023-04-15T20:12:09.599Z,101141.84
2023-04-15T20:14:31.891Z,101138.34
2023-04-15T20:17:01.336Z,101145.47
2023-04-15T20:19:28.888Z,101143.53
2023-04-15T20:21:57.446Z,101152.34
2023-04-15T20:24:25.621Z,101152.22
2023-04-15T20:26:53.153Z,101151.94
2023-04-15T20:29:20.910Z,101152.66
2023-04-15T20:31:51.760Z,101150.25
2023-04-15T20:34:19.588Z,101154.34
2023-04-15T20:36:47.123Z,101154.47
2023-04-15T20:39:14.694Z,101161.72
2023-04-15T20:41:42.256Z,101156.94
2023-04-15T20:44:09.836Z,101164.81
2023-04-15T20:46:37.450Z,101164.91
2023-04-15T20:49:06.753Z,101162.16
2023-04-15T20:51:37.902Z,101168.31
2023-04-15T20:54:06.056Z,101173.50
2023-04-15T20:56:35.350Z,101162.88
2023-04-15T20:59:03.339Z,101171.56
2023-04-15T21:01:31.142Z,101170.38
2023-04-15T21:04:00.183Z,101167.97
2023-04-15T21:06:30.025Z,101166.16
2023-04-15T21:08:57.625Z,101180.47
2023-04-15T21:11:49.522Z,101173.28
2023-04-15T21:14:14.473Z,101180.28
2023-04-15T21:16:42.235Z,101175.06
2023-04-15T21:19:10.543Z,101181.00
2023-04-15T21:21:39.538Z,101176.41
2023-04-15T21:24:07.993Z,101182.69
2023-04-15T21:26:36.773Z,101182.59
2023-04-15T21:29:04.689Z,101186.31
2023-04-15T21:31:32.929Z,101184.63
2023-04-15T21:34:00.570Z,101192.06
2023-04-15T21:36:28.904Z,101185.78
2023-04-15T21:38:57.825Z,101190.13
2023-04-15T21:41:29.915Z,101192.69
2023-04-15T21:43:58.000Z,101194.81
2023-04-15T21:46:32.751Z,101200.00
2023-04-15T21:49:01.279Z,101206.03
2023-04-15T21:51:28.885Z,101205.94
2023-04-15T21:53:58.007Z,101212.69
2023-04-15T21:56:26.344Z,101207.31
2023-04-15T21:58:57.354Z,101212.69
2023-04-15T22:01:25.320Z,101213.06
2023-04-15T22:03:53.128Z,101208.69
2023-04-15T22:06:21.061Z,101217.59
2023-04-15T22:08:56.856Z,101214.22
2023-04-15T22:11:30.796Z,101209.78
2023-04-15T22:14:00.118Z,101212.44
2023-04-15T22:16:28.189Z,101209.91
2023-04-15T22:18:57.480Z,101204.91
2023-04-15T22:21:25.137Z,101219.75
2023-04-15T22:23:53.059Z,101216.38
2023-04-15T22:26:43.717Z,101224.97
2023-04-15T22:29:11.909Z,101229.31
2023-04-15T22:31:39.585Z,101223.25
2023-04-15T22:34:07.904Z,101231.09
2023-04-15T22:36:36.011Z,101226.66
2023-04-15T22:39:05.698Z,101229.91
2023-04-15T22:41:35.925Z,101231.72
2023-04-15T22:44:04.992Z,101229.06
2023-04-15T22:46:33.514Z,101230.03
2023-04-15T22:49:01.860Z,101239.78
2023-04-15T22:51:29.508Z,101237.47
2023-04-15T22:53:59.045Z,101245.22
2023-04-15T22:56:26.821Z,101249.69
2023-04-15T22:58:54.566Z,101255.81
2023-04-15T23:01:26.920Z,101254.13
2023-04-15T23:04:04.036Z,101252.31
2023-04-15T23:06:34.996Z,101254.75
2023-04-15T23:09:02.882Z,101258.03
2023-04-15T23:11:30.724Z,101259.72
2023-04-15T23:13:58.249Z,101262.25
2023-04-15T23:16:27.777Z,101263.84
2023-04-15T23:18:55.783Z,101268.41
2023-04-15T23:21:27.903Z,101266.59
2023-04-15T23:23:55.523Z,101272.78
2023-04-15T23:26:23.300Z,101268.31
2023-04-15T23:28:51.015Z,101280.63
2023-04-15T23:31:18.653Z,101281.66
2023-04-15T23:33:47.926Z,101275.44
2023-04-15T23:36:15.533Z,101276.88
2023-04-15T23:38:43.286Z,101268.81
2023-04-15T23:41:11.948Z,101265.31
2023-04-15T23:43:39.901Z,101269.75
2023-04-15T23:46:08.553Z,101266.38
2023-04-15T23:48:36.324Z,101273.06
2023-04-15T23:51:06.047Z,101275.91
2023-04-15T23:57:41.428Z,101277.84
